Aeroporto :
LOGIN :

Iscrizione | Disclaimer

   EN    FR    IT 

 










Sommario :    VFR   VFR Marginale   IFR   IFR Intensivo   IFR Molto Intensivo
Visibilità : 
Base nubi : 
>= 8 km
>= 3000ft
5 / 8 km
1000 / 3000 ft
1500m / 5 km
500 / 1000 ft
800 / 1500m
200 / 500 ft
< 800m
< 200 ft
Simboli :   Temporali  Nebbia  Neve Forte  Precipitazioni Forti  Vento > 20 kt
SIGMETs :   Varie  Temporali  Ghiacco  Turbolenza  Onda orograficha  Ceneri Vulcaniche






- Altitudine del aeroporto : 1475 ft


LSZC - Buochs Stans

ULTIMO METAR :
  • 021320Z 07005KT 9999 BKN050 07/M00 Q1030

METARs OBSOLETI :
  • 021250Z AUTO 07004KT 9999 BKN050 07/M00 Q1030
  • 021220Z AUTO 05004KT 010V090 9999 OVC050 07/00 Q1030
  • 021150Z AUTO 06008KT 9999 BKN050 06/01 Q1030
  • 021120Z AUTO 06007KT 9999 BKN055 07/01 Q1030
  • 021050Z 07004KT 9999 SCT065 BKN080 07/M00 Q1030

TAF TAF LSZC
Valido dal 02 a 12 ore il 02 a 21 ore UTC


021125Z 0212/0221 06006KT 9999 BKN055



MetMap, La meteo Aeronautica in un colpo d'occhio ! - Copyright ORBIFLY Dicembre 2007 - Disclaimer

ORBIFLY MET'MAP TEAM :

Programmazione e sviluppo : Alexandra Zaïnal
Concezione : Baudouin d'Aumeries
Supporto tecnico e logistico : Manuel Goepfert
Aiuto : Marc-Olivier Méhu
Aiuto per la traduzione : Arnaldo La Scala




FONTI E CREDITI :

   NOAA